createdAt,value
2022-08-31T00:00:01.982Z,3.10
2022-08-31T00:01:52.488Z,3.00
2022-08-31T00:03:42.974Z,3.40
2022-08-31T00:05:16.036Z,3.13
2022-08-31T00:06:54.025Z,3.30
2022-08-31T00:08:27.654Z,3.27
2022-08-31T00:10:00.378Z,3.53
2022-08-31T00:11:36.119Z,3.63
2022-08-31T00:13:09.800Z,3.00
2022-08-31T00:14:44.282Z,3.20
2022-08-31T00:16:17.415Z,3.30
2022-08-31T00:17:50.624Z,3.20
2022-08-31T00:19:22.503Z,3.10
2022-08-31T00:20:55.693Z,3.43
2022-08-31T00:22:28.429Z,3.53
2022-08-31T00:24:01.160Z,3.20
2022-08-31T00:25:34.646Z,3.43
2022-08-31T00:27:07.427Z,3.40
2022-08-31T00:28:40.165Z,3.23
2022-08-31T00:30:13.878Z,3.30
2022-08-31T00:31:46.849Z,3.07
2022-08-31T00:33:19.754Z,3.33
2022-08-31T00:34:53.194Z,3.27
2022-08-31T00:36:27.508Z,3.73
2022-08-31T00:38:00.461Z,3.17
2022-08-31T00:39:33.186Z,3.30
2022-08-31T00:41:06.995Z,3.50
2022-08-31T00:42:39.883Z,3.33
2022-08-31T00:44:12.754Z,3.07
2022-08-31T00:45:46.068Z,3.40
2022-08-31T00:47:19.023Z,3.27
2022-08-31T00:48:58.346Z,3.33
2022-08-31T00:50:31.080Z,3.30
2022-08-31T00:52:08.352Z,3.70
2022-08-31T00:53:40.213Z,3.33
2022-08-31T00:55:16.705Z,3.57
2022-08-31T00:56:49.809Z,3.60
2022-08-31T00:58:22.850Z,3.30
2022-08-31T00:59:55.639Z,3.40
2022-08-31T01:01:30.705Z,3.30
2022-08-31T01:03:05.964Z,3.30
2022-08-31T01:04:38.779Z,3.50
2022-08-31T01:06:11.704Z,3.47
2022-08-31T01:07:47.562Z,3.57
2022-08-31T01:09:22.909Z,3.50
2022-08-31T01:10:55.276Z,3.43
2022-08-31T01:12:29.325Z,3.30
2022-08-31T01:14:02.884Z,3.20
2022-08-31T01:15:37.733Z,3.43
2022-08-31T01:17:11.828Z,3.37
2022-08-31T01:18:47.102Z,3.60
2022-08-31T01:20:25.710Z,3.53
2022-08-31T01:22:04.595Z,3.53
2022-08-31T01:23:43.669Z,3.67
2022-08-31T01:25:16.714Z,3.47
2022-08-31T01:26:49.876Z,3.43
2022-08-31T01:28:28.389Z,3.60
2022-08-31T01:30:01.573Z,3.50
2022-08-31T01:31:36.423Z,4.00
2022-08-31T01:33:09.260Z,3.40
2022-08-31T01:34:42.021Z,3.53
2022-08-31T01:36:16.232Z,3.53
2022-08-31T01:37:49.435Z,3.50
2022-08-31T01:39:24.434Z,3.70
2022-08-31T01:41:01.811Z,3.73
2022-08-31T01:42:34.744Z,3.80
2022-08-31T01:44:07.577Z,3.80
2022-08-31T01:45:40.304Z,3.77
2022-08-31T01:47:13.195Z,3.60
2022-08-31T01:48:47.865Z,3.40
2022-08-31T01:50:19.706Z,3.53
2022-08-31T01:51:54.465Z,3.50
2022-08-31T01:53:27.233Z,3.60
2022-08-31T01:55:03.489Z,3.83
2022-08-31T01:56:38.519Z,3.50
2022-08-31T01:58:11.337Z,3.50
2022-08-31T01:59:44.093Z,3.90
2022-08-31T02:01:32.583Z,3.90
2022-08-31T02:03:08.180Z,3.60
2022-08-31T02:04:41.149Z,3.57
2022-08-31T02:06:14.647Z,4.00
2022-08-31T02:07:46.520Z,3.80
2022-08-31T02:09:19.780Z,3.40
2022-08-31T02:10:52.912Z,3.60
2022-08-31T02:12:25.725Z,3.53
2022-08-31T02:13:58.504Z,3.60
2022-08-31T02:15:31.349Z,3.60
2022-08-31T02:17:04.169Z,3.53
2022-08-31T02:18:37.583Z,3.70
2022-08-31T02:20:11.145Z,3.63
2022-08-31T02:21:43.886Z,3.70
2022-08-31T02:23:16.708Z,3.50
2022-08-31T02:24:49.481Z,3.87
2022-08-31T02:26:23.972Z,3.80
2022-08-31T02:27:56.784Z,3.50
2022-08-31T02:29:29.889Z,3.50
2022-08-31T02:31:02.812Z,3.93
2022-08-31T02:32:34.674Z,3.87
2022-08-31T02:34:07.434Z,3.70
2022-08-31T02:35:40.613Z,3.77
2022-08-31T02:37:12.378Z,3.47
2022-08-31T02:38:45.104Z,3.60
2022-08-31T02:40:17.937Z,3.70
2022-08-31T02:41:52.329Z,3.63
2022-08-31T02:43:25.408Z,3.50
2022-08-31T02:44:58.277Z,3.70
2022-08-31T02:46:31.024Z,4.00
2022-08-31T02:48:04.911Z,4.10
2022-08-31T02:49:37.789Z,3.87
2022-08-31T02:51:10.627Z,3.70
2022-08-31T02:52:43.356Z,3.50
2022-08-31T02:54:16.101Z,3.63
2022-08-31T02:55:49.388Z,3.70
2022-08-31T02:57:23.881Z,3.60
2022-08-31T02:58:56.614Z,3.70
2022-08-31T03:00:28.441Z,3.90
2022-08-31T03:02:01.269Z,3.70
2022-08-31T03:03:35.368Z,3.90
2022-08-31T03:05:10.125Z,3.57
2022-08-31T03:06:43.220Z,3.80
2022-08-31T03:08:16.053Z,3.60
2022-08-31T03:09:48.812Z,3.90
2022-08-31T03:11:21.567Z,3.83
2022-08-31T03:12:56.072Z,3.80
2022-08-31T03:14:28.867Z,3.70
2022-08-31T03:16:01.659Z,4.00
2022-08-31T03:17:33.809Z,3.87
2022-08-31T03:19:06.571Z,3.77
2022-08-31T03:20:39.301Z,4.00
2022-08-31T03:22:13.393Z,4.00
2022-08-31T03:23:46.129Z,3.57
2022-08-31T03:25:19.219Z,3.80
2022-08-31T03:26:51.950Z,3.87
2022-08-31T03:28:26.065Z,3.80
2022-08-31T03:29:59.833Z,3.80
2022-08-31T03:31:33.303Z,3.70
2022-08-31T03:33:06.073Z,4.20
2022-08-31T03:34:38.812Z,3.80
2022-08-31T03:36:11.543Z,3.90
2022-08-31T03:37:44.330Z,4.10
2022-08-31T03:39:17.388Z,4.10
2022-08-31T03:40:50.919Z,4.13
2022-08-31T03:42:23.047Z,4.23
2022-08-31T03:43:57.135Z,3.90
2022-08-31T03:45:31.949Z,3.70
2022-08-31T03:47:04.939Z,4.07
2022-08-31T03:48:37.651Z,3.87
2022-08-31T03:50:13.269Z,3.83
2022-08-31T03:51:46.269Z,3.97
2022-08-31T03:53:22.883Z,3.50
2022-08-31T03:54:54.757Z,3.73
2022-08-31T03:56:27.479Z,4.10
2022-08-31T03:58:00.620Z,3.30
2022-08-31T03:59:33.792Z,3.60
2022-08-31T04:01:07.446Z,3.80
2022-08-31T04:02:40.450Z,3.83
2022-08-31T04:04:12.698Z,3.70
2022-08-31T04:05:45.906Z,3.60
2022-08-31T04:07:19.197Z,3.47
2022-08-31T04:08:51.946Z,3.90
2022-08-31T04:10:28.014Z,3.53
2022-08-31T04:12:00.763Z,3.67
2022-08-31T04:13:32.558Z,3.90
2022-08-31T04:15:08.283Z,3.83
2022-08-31T04:16:42.298Z,3.60
2022-08-31T04:18:15.016Z,3.57
2022-08-31T04:19:47.792Z,3.80
2022-08-31T04:21:24.168Z,3.60
2022-08-31T04:22:56.888Z,3.60
2022-08-31T04:24:29.369Z,3.80
2022-08-31T04:26:02.133Z,3.63
2022-08-31T04:27:34.914Z,3.50
2022-08-31T04:29:12.218Z,3.67
2022-08-31T04:30:48.418Z,3.60
2022-08-31T04:32:21.568Z,3.40
2022-08-31T04:33:56.353Z,3.63
2022-08-31T04:35:29.173Z,3.63
2022-08-31T04:37:01.892Z,3.67
2022-08-31T04:38:34.161Z,3.60
2022-08-31T04:40:18.203Z,4.10
2022-08-31T04:41:51.966Z,3.97
2022-08-31T04:43:25.045Z,3.83
2022-08-31T04:44:57.935Z,3.20
2022-08-31T04:46:33.773Z,3.83
2022-08-31T04:48:06.544Z,3.90
2022-08-31T04:49:39.925Z,4.00
2022-08-31T04:51:14.628Z,3.50
2022-08-31T04:53:03.142Z,4.07
2022-08-31T04:54:36.832Z,3.70
2022-08-31T04:56:14.445Z,3.97
2022-08-31T04:57:47.172Z,3.80
2022-08-31T04:59:25.352Z,3.60
2022-08-31T05:00:58.083Z,3.60
2022-08-31T05:02:32.854Z,3.87
2022-08-31T05:04:06.862Z,3.40
2022-08-31T05:05:40.509Z,3.97
2022-08-31T05:07:13.220Z,4.10
2022-08-31T05:08:45.329Z,3.53
2022-08-31T05:10:18.924Z,3.67
2022-08-31T05:11:53.141Z,3.93
2022-08-31T05:13:24.925Z,3.60
2022-08-31T05:14:57.827Z,4.00
2022-08-31T05:16:30.750Z,3.70
2022-08-31T05:18:05.237Z,3.60
2022-08-31T05:19:41.334Z,4.10
2022-08-31T05:21:16.755Z,4.00
2022-08-31T05:22:49.608Z,4.07
2022-08-31T05:24:23.864Z,4.07
2022-08-31T05:25:57.626Z,4.23
2022-08-31T05:27:30.386Z,4.20
2022-08-31T05:29:06.322Z,3.77
2022-08-31T05:30:44.547Z,4.03
2022-08-31T05:32:17.312Z,4.13
2022-08-31T05:33:52.447Z,4.17
2022-08-31T05:35:25.187Z,3.90
2022-08-31T05:36:58.470Z,4.60
2022-08-31T05:38:31.841Z,4.30
2022-08-31T05:40:05.382Z,4.27
2022-08-31T05:41:38.567Z,4.23
2022-08-31T05:43:11.345Z,4.20
2022-08-31T05:44:44.091Z,4.57
2022-08-31T05:46:17.868Z,4.40
2022-08-31T05:47:50.624Z,4.00
2022-08-31T05:49:27.970Z,4.13
2022-08-31T05:51:02.424Z,4.50
2022-08-31T05:52:35.146Z,4.13
2022-08-31T05:54:10.656Z,4.37
2022-08-31T05:55:43.608Z,5.60
2022-08-31T05:57:16.344Z,4.80
2022-08-31T05:58:49.785Z,5.20
2022-08-31T06:00:22.864Z,4.17
2022-08-31T06:01:55.681Z,4.80
2022-08-31T06:03:29.206Z,4.90
2022-08-31T06:05:03.506Z,5.07
2022-08-31T06:06:37.065Z,5.17
2022-08-31T06:08:13.215Z,5.40
2022-08-31T06:09:48.041Z,5.60
2022-08-31T06:11:23.754Z,5.57
2022-08-31T06:12:56.491Z,5.90
2022-08-31T06:14:29.276Z,5.83
2022-08-31T06:16:03.917Z,5.87
2022-08-31T06:17:37.530Z,6.13
2022-08-31T06:19:10.453Z,5.87
2022-08-31T06:20:45.621Z,5.90
2022-08-31T06:22:19.985Z,6.30
2022-08-31T06:23:54.399Z,6.60
2022-08-31T06:25:27.999Z,6.27
2022-08-31T06:27:01.694Z,7.13
2022-08-31T06:28:33.609Z,7.20
2022-08-31T06:30:08.046Z,6.10
2022-08-31T06:31:47.181Z,6.93
2022-08-31T06:33:20.138Z,7.40
2022-08-31T06:34:53.139Z,7.83
2022-08-31T06:36:29.442Z,7.40
2022-08-31T06:38:02.144Z,7.13
2022-08-31T06:39:34.959Z,7.47
2022-08-31T06:41:15.767Z,7.87
2022-08-31T06:42:48.497Z,7.83
2022-08-31T06:44:22.551Z,7.57
2022-08-31T06:45:58.185Z,7.70
2022-08-31T06:47:31.603Z,8.20
2022-08-31T06:49:05.096Z,7.63
2022-08-31T06:50:41.553Z,8.30
2022-08-31T06:52:15.808Z,8.43
2022-08-31T06:53:48.591Z,8.43
2022-08-31T06:55:21.497Z,9.13
2022-08-31T06:56:54.230Z,8.83
2022-08-31T06:58:26.945Z,9.10
2022-08-31T06:59:59.657Z,8.63
2022-08-31T07:01:35.171Z,8.90
2022-08-31T07:03:23.046Z,8.90
2022-08-31T07:04:56.936Z,9.43
2022-08-31T07:06:31.825Z,9.43
2022-08-31T07:08:06.086Z,9.80
2022-08-31T07:09:41.067Z,10.20
2022-08-31T07:11:14.597Z,9.87
2022-08-31T07:12:47.312Z,10.07
2022-08-31T07:14:22.893Z,9.80
2022-08-31T07:16:04.313Z,9.93
2022-08-31T07:17:37.781Z,9.83
2022-08-31T07:19:11.404Z,10.20
2022-08-31T07:20:44.180Z,10.43
2022-08-31T07:22:16.894Z,10.20
2022-08-31T07:23:51.980Z,9.77
2022-08-31T07:25:26.395Z,10.23
2022-08-31T07:27:02.232Z,9.63
2022-08-31T07:28:35.262Z,9.83
2022-08-31T07:30:09.694Z,9.50
2022-08-31T07:31:44.644Z,9.33
2022-08-31T07:33:18.178Z,9.73
2022-08-31T07:34:58.605Z,10.50
2022-08-31T07:36:33.420Z,10.70
2022-08-31T07:38:24.165Z,10.03
2022-08-31T07:40:15.802Z,10.03
2022-08-31T07:42:20.685Z,8.93
2022-08-31T07:43:55.483Z,8.87
2022-08-31T07:45:29.398Z,10.33
2022-08-31T07:47:04.571Z,10.53
2022-08-31T07:48:37.555Z,10.13
2022-08-31T07:50:10.579Z,9.10
2022-08-31T07:51:50.256Z,9.20
2022-08-31T07:53:23.034Z,11.10
2022-08-31T07:55:06.326Z,10.27
2022-08-31T07:56:39.120Z,10.80
2022-08-31T07:58:15.430Z,10.23
2022-08-31T07:59:49.507Z,11.70
2022-08-31T08:01:22.576Z,11.03
2022-08-31T08:02:55.810Z,12.17
2022-08-31T08:04:29.208Z,12.03
2022-08-31T08:06:01.981Z,10.77
2022-08-31T08:07:35.548Z,11.20
2022-08-31T08:09:23.938Z,11.00
2022-08-31T08:10:59.361Z,10.97
2022-08-31T08:12:36.252Z,10.57
2022-08-31T08:14:09.145Z,10.23
2022-08-31T08:15:41.950Z,10.13
2022-08-31T08:17:14.680Z,10.30
2022-08-31T08:18:47.788Z,10.00
2022-08-31T08:20:21.813Z,8.83
2022-08-31T08:22:10.206Z,8.30
2022-08-31T08:23:42.960Z,10.23
2022-08-31T08:25:16.601Z,9.10
2022-08-31T08:26:54.341Z,8.67
2022-08-31T08:28:39.176Z,9.20
2022-08-31T08:30:14.467Z,9.97
2022-08-31T08:31:52.878Z,10.43
2022-08-31T08:33:28.023Z,10.27
2022-08-31T08:35:00.994Z,10.57
2022-08-31T08:36:35.761Z,9.47
2022-08-31T08:38:08.730Z,10.60
2022-08-31T08:39:43.224Z,10.60
2022-08-31T08:41:19.903Z,10.67
2022-08-31T08:42:54.347Z,9.67
2022-08-31T08:44:29.561Z,10.27
2022-08-31T08:46:25.284Z,10.37
2022-08-31T08:47:58.149Z,10.90
2022-08-31T08:49:39.734Z,11.40
2022-08-31T08:51:15.718Z,11.60
2022-08-31T08:52:48.804Z,12.00
2022-08-31T08:54:29.437Z,11.90
2022-08-31T08:56:23.107Z,11.73
2022-08-31T08:57:56.594Z,12.27
2022-08-31T08:59:29.596Z,12.77
2022-08-31T09:01:04.559Z,12.17
2022-08-31T09:02:42.694Z,11.80
2022-08-31T09:04:26.173Z,11.63
2022-08-31T09:06:06.998Z,11.80
2022-08-31T09:07:58.557Z,11.47
2022-08-31T09:09:37.401Z,11.30
2022-08-31T09:11:17.701Z,12.50
2022-08-31T09:12:59.189Z,12.77
2022-08-31T09:14:58.168Z,13.27
2022-08-31T09:16:40.897Z,13.50
2022-08-31T09:18:26.395Z,12.30
2022-08-31T09:20:00.299Z,11.70
2022-08-31T09:21:37.068Z,11.07
2022-08-31T09:23:10.011Z,12.00
2022-08-31T09:24:42.910Z,10.40
2022-08-31T09:26:18.373Z,11.17
2022-08-31T09:27:57.079Z,11.27
2022-08-31T09:29:33.095Z,10.43
2022-08-31T09:31:06.285Z,9.17
2022-08-31T09:32:40.112Z,9.80
2022-08-31T09:34:28.399Z,10.60
2022-08-31T09:36:16.801Z,9.17
2022-08-31T09:37:59.926Z,9.90
2022-08-31T09:39:37.060Z,9.00
2022-08-31T09:41:23.007Z,8.33
2022-08-31T09:43:10.112Z,9.50
2022-08-31T09:44:50.133Z,9.97
2022-08-31T09:46:27.942Z,9.77
2022-08-31T09:48:01.485Z,10.17
2022-08-31T09:49:37.517Z,10.33
2022-08-31T09:51:10.402Z,10.37
2022-08-31T09:53:00.881Z,11.00
2022-08-31T09:54:51.352Z,10.10
2022-08-31T09:56:25.081Z,11.20
2022-08-31T09:58:03.076Z,10.37
2022-08-31T09:59:41.864Z,10.90
2022-08-31T10:01:27.699Z,10.30
2022-08-31T10:03:13.508Z,9.30
2022-08-31T10:04:51.069Z,9.70
2022-08-31T10:06:30.193Z,10.83
2022-08-31T10:08:07.904Z,12.93
2022-08-31T10:09:46.991Z,11.90
2022-08-31T10:11:23.101Z,13.47
2022-08-31T10:13:00.196Z,13.23
2022-08-31T10:14:41.185Z,11.60
2022-08-31T10:16:25.888Z,12.17
2022-08-31T10:18:11.805Z,10.37
2022-08-31T10:19:53.295Z,12.57
2022-08-31T10:21:35.204Z,10.87
2022-08-31T10:23:19.120Z,9.90
2022-08-31T10:25:04.449Z,10.37
2022-08-31T10:26:42.442Z,11.70
2022-08-31T10:28:21.203Z,11.93
2022-08-31T10:29:58.908Z,12.27
2022-08-31T10:31:45.298Z,11.00
2022-08-31T10:33:25.069Z,12.43
2022-08-31T10:35:05.647Z,10.57
2022-08-31T10:36:40.964Z,9.50
2022-08-31T10:38:21.149Z,9.50
2022-08-31T10:39:58.237Z,10.23
2022-08-31T10:41:36.215Z,10.30
2022-08-31T10:43:17.643Z,11.90
2022-08-31T10:44:57.118Z,10.97
2022-08-31T10:46:35.350Z,10.57
2022-08-31T10:48:12.663Z,9.83
2022-08-31T10:49:45.414Z,10.17
2022-08-31T10:51:22.292Z,10.60
2022-08-31T10:53:03.726Z,9.33
2022-08-31T10:54:45.560Z,11.23
2022-08-31T10:56:23.912Z,11.83
2022-08-31T10:58:03.890Z,11.70
2022-08-31T10:59:45.978Z,11.73
2022-08-31T11:01:27.932Z,10.40
2022-08-31T11:03:07.944Z,9.90
2022-08-31T11:04:55.942Z,10.47
2022-08-31T11:06:34.272Z,9.93
2022-08-31T11:08:23.176Z,9.53
2022-08-31T11:10:05.975Z,11.97
2022-08-31T11:11:43.960Z,9.67
2022-08-31T11:13:28.875Z,11.87
2022-08-31T11:15:32.224Z,12.90
2022-08-31T11:17:29.857Z,10.83
2022-08-31T11:19:25.425Z,11.73
2022-08-31T11:21:13.849Z,12.07
2022-08-31T11:23:12.255Z,12.47
2022-08-31T11:25:08.528Z,11.50
2022-08-31T11:26:50.862Z,11.03
2022-08-31T11:28:33.977Z,11.30
2022-08-31T11:30:12.104Z,10.67
2022-08-31T11:31:46.292Z,9.47
2022-08-31T11:33:24.842Z,11.30
2022-08-31T11:35:00.957Z,11.87
2022-08-31T11:36:50.017Z,11.63
2022-08-31T11:38:41.356Z,11.50
2022-08-31T11:40:15.060Z,11.23
2022-08-31T11:41:48.991Z,11.20
2022-08-31T11:43:43.536Z,12.43
2022-08-31T11:45:27.858Z,12.20
2022-08-31T11:47:06.731Z,10.10
2022-08-31T11:49:01.529Z,10.20
2022-08-31T11:51:03.945Z,10.53
2022-08-31T11:52:48.030Z,10.87
2022-08-31T11:55:00.782Z,10.50
2022-08-31T11:56:36.446Z,10.40
2022-08-31T11:58:34.558Z,10.43
2022-08-31T12:00:20.376Z,10.80
2022-08-31T12:01:56.496Z,10.50
2022-08-31T12:03:34.740Z,11.50
2022-08-31T12:05:07.902Z,9.93
2022-08-31T12:07:11.452Z,10.97
2022-08-31T12:08:52.141Z,9.57
2022-08-31T12:10:37.232Z,9.97
2022-08-31T12:12:21.634Z,11.37
2022-08-31T12:14:01.213Z,9.17
2022-08-31T12:15:49.412Z,10.43
2022-08-31T12:17:28.448Z,10.70
2022-08-31T12:19:37.909Z,10.23
2022-08-31T12:21:39.295Z,10.93
2022-08-31T12:23:37.218Z,11.07
2022-08-31T12:25:22.213Z,9.93
2022-08-31T12:27:02.822Z,11.20
2022-08-31T12:28:49.596Z,10.73
2022-08-31T12:30:24.835Z,10.90
2022-08-31T12:32:21.151Z,10.50
2022-08-31T12:34:00.604Z,10.50
2022-08-31T12:35:34.390Z,11.00
2022-08-31T12:37:22.840Z,10.43
2022-08-31T12:39:07.264Z,10.03
2022-08-31T12:40:45.966Z,10.97
2022-08-31T12:42:19.542Z,11.40
2022-08-31T12:43:52.948Z,12.13
2022-08-31T12:45:41.745Z,10.70
2022-08-31T12:47:24.932Z,11.43
2022-08-31T12:49:28.432Z,10.83
2022-08-31T12:51:08.811Z,10.87
2022-08-31T12:52:59.013Z,10.87
2022-08-31T12:54:51.158Z,11.23
2022-08-31T12:56:34.427Z,11.77
2022-08-31T12:58:28.044Z,10.60
2022-08-31T13:00:07.477Z,11.20
2022-08-31T13:01:42.718Z,10.77
2022-08-31T13:03:21.068Z,9.90
2022-08-31T13:04:54.408Z,10.17
2022-08-31T13:06:30.433Z,10.73
2022-08-31T13:08:20.777Z,9.70
2022-08-31T13:10:06.474Z,10.07
2022-08-31T13:11:42.576Z,9.90
2022-08-31T13:13:23.419Z,9.57
2022-08-31T13:14:56.164Z,10.27
2022-08-31T13:16:29.042Z,9.83
2022-08-31T13:18:02.725Z,9.87
2022-08-31T13:19:37.246Z,9.00
2022-08-31T13:21:10.957Z,10.20
2022-08-31T13:22:48.267Z,9.03
2022-08-31T13:24:28.277Z,8.90
2022-08-31T13:26:02.456Z,8.27
2022-08-31T13:27:38.739Z,9.00
2022-08-31T13:29:15.624Z,9.20
2022-08-31T13:31:02.818Z,8.50
2022-08-31T13:32:36.177Z,9.30
2022-08-31T13:34:09.481Z,8.30
2022-08-31T13:35:49.629Z,8.80
2022-08-31T13:37:30.478Z,8.20
2022-08-31T13:39:08.638Z,7.27
2022-08-31T13:40:50.228Z,7.73
2022-08-31T13:42:31.795Z,7.97
2022-08-31T13:44:10.111Z,7.63
2022-08-31T13:45:58.478Z,7.17
2022-08-31T13:47:47.517Z,6.90
2022-08-31T13:49:35.495Z,7.20
2022-08-31T13:51:14.676Z,7.30
2022-08-31T13:53:09.524Z,7.40
2022-08-31T13:54:43.698Z,7.80
2022-08-31T13:56:54.690Z,7.97
2022-08-31T13:58:29.208Z,7.00
2022-08-31T14:00:36.596Z,6.87
2022-08-31T14:02:30.777Z,8.40
2022-08-31T14:04:43.803Z,7.90
2022-08-31T14:06:24.696Z,8.30
2022-08-31T14:08:03.581Z,6.90
2022-08-31T14:09:42.117Z,6.70
2022-08-31T14:11:15.029Z,7.10
2022-08-31T14:12:51.876Z,7.30
2022-08-31T14:14:39.704Z,6.50
2022-08-31T14:16:32.437Z,6.63
2022-08-31T14:18:24.061Z,7.20
2022-08-31T14:19:59.680Z,6.93
2022-08-31T14:21:35.153Z,6.60
2022-08-31T14:23:27.662Z,6.17
2022-08-31T14:25:02.612Z,5.80
2022-08-31T14:26:37.307Z,6.93
2022-08-31T14:28:09.055Z,5.93
2022-08-31T14:29:42.069Z,5.70
2022-08-31T14:31:24.169Z,5.30
2022-08-31T14:32:58.115Z,6.43
2022-08-31T14:34:32.043Z,5.87
2022-08-31T14:36:14.577Z,5.90
2022-08-31T14:37:48.018Z,5.57
2022-08-31T14:39:23.017Z,5.90
2022-08-31T14:40:57.383Z,5.50
2022-08-31T14:42:34.712Z,5.37
2022-08-31T14:44:09.223Z,5.47
2022-08-31T14:45:44.246Z,5.00
2022-08-31T14:47:19.977Z,5.17
2022-08-31T14:48:51.810Z,5.00
2022-08-31T14:50:27.065Z,5.00
2022-08-31T14:52:04.591Z,4.63
2022-08-31T14:53:38.032Z,4.93
2022-08-31T14:55:12.013Z,5.17
2022-08-31T14:56:48.772Z,4.83
2022-08-31T14:58:23.820Z,5.10
2022-08-31T15:00:00.852Z,4.90
2022-08-31T15:01:35.692Z,5.30
2022-08-31T15:03:11.860Z,4.70
2022-08-31T15:04:45.827Z,5.00
2022-08-31T15:06:20.620Z,5.07
2022-08-31T15:07:54.729Z,4.60
2022-08-31T15:09:27.473Z,4.90
2022-08-31T15:11:00.191Z,4.33
2022-08-31T15:12:33.456Z,4.50
2022-08-31T15:14:12.219Z,4.70
2022-08-31T15:15:47.671Z,4.60
2022-08-31T15:17:24.484Z,4.43
2022-08-31T15:18:58.794Z,4.20
2022-08-31T15:20:37.300Z,4.07
2022-08-31T15:22:10.244Z,4.10
2022-08-31T15:23:44.832Z,4.00
2022-08-31T15:25:18.717Z,4.10
2022-08-31T15:26:53.226Z,3.93
2022-08-31T15:28:25.014Z,4.43
2022-08-31T15:30:02.440Z,3.70
2022-08-31T15:31:35.336Z,3.97
2022-08-31T15:33:09.983Z,3.50
2022-08-31T15:34:53.236Z,3.60
2022-08-31T15:36:27.024Z,3.30
2022-08-31T15:38:03.133Z,3.10
2022-08-31T15:39:40.942Z,3.03
2022-08-31T15:41:14.111Z,3.00
2022-08-31T15:42:46.866Z,3.33
2022-08-31T15:44:20.041Z,3.10
2022-08-31T15:45:52.873Z,3.00
2022-08-31T15:47:45.093Z,3.23
2022-08-31T15:49:16.874Z,3.30
2022-08-31T15:50:58.124Z,3.43
2022-08-31T15:52:32.606Z,3.30
2022-08-31T15:54:21.368Z,3.70
2022-08-31T15:55:55.272Z,3.93
2022-08-31T15:57:29.120Z,3.60
2022-08-31T15:59:04.284Z,3.77
2022-08-31T16:00:37.409Z,3.53
2022-08-31T16:02:12.666Z,3.50
2022-08-31T16:03:51.988Z,3.70
2022-08-31T16:05:28.282Z,3.20
2022-08-31T16:07:05.140Z,3.63
2022-08-31T16:08:41.197Z,3.40
2022-08-31T16:10:19.806Z,3.57
2022-08-31T16:11:53.112Z,3.73
2022-08-31T16:13:25.963Z,3.40
2022-08-31T16:14:58.825Z,3.60
2022-08-31T16:16:34.824Z,3.33
2022-08-31T16:18:08.911Z,3.40
2022-08-31T16:19:41.899Z,3.90
2022-08-31T16:21:15.452Z,3.47
2022-08-31T16:22:49.730Z,3.70
2022-08-31T16:24:24.144Z,3.23
2022-08-31T16:25:57.370Z,3.60
2022-08-31T16:27:30.234Z,3.67
2022-08-31T16:29:04.677Z,3.70
2022-08-31T16:30:37.539Z,3.53
2022-08-31T16:32:10.669Z,3.70
2022-08-31T16:33:44.684Z,4.00
2022-08-31T16:35:17.785Z,3.60
2022-08-31T16:36:52.295Z,3.90
2022-08-31T16:38:26.467Z,3.40
2022-08-31T16:39:59.345Z,3.50
2022-08-31T16:41:34.512Z,3.63
2022-08-31T16:43:07.364Z,4.70
2022-08-31T16:44:41.167Z,4.27
2022-08-31T16:46:39.593Z,4.33
2022-08-31T16:48:29.521Z,3.57
2022-08-31T16:50:08.153Z,3.57
2022-08-31T16:51:42.812Z,4.10
2022-08-31T16:53:18.195Z,4.03
2022-08-31T16:54:53.350Z,4.40
2022-08-31T16:56:29.172Z,3.67
2022-08-31T16:58:02.025Z,3.90
2022-08-31T16:59:36.408Z,3.80
2022-08-31T17:01:12.738Z,3.40
2022-08-31T17:02:46.669Z,3.90
2022-08-31T17:04:48.190Z,3.60
2022-08-31T17:06:16.953Z,3.50
2022-08-31T17:07:49.834Z,3.63
2022-08-31T17:09:26.788Z,3.70
2022-08-31T17:11:04.176Z,3.60
2022-08-31T17:12:38.359Z,4.10
2022-08-31T17:14:13.456Z,4.20
2022-08-31T17:15:46.321Z,3.93
2022-08-31T17:17:21.817Z,3.70
2022-08-31T17:18:57.539Z,3.77
2022-08-31T17:20:31.211Z,3.77
2022-08-31T17:22:05.329Z,3.70
2022-08-31T17:23:37.250Z,3.47
2022-08-31T17:25:10.538Z,3.17
2022-08-31T17:26:45.015Z,3.40
2022-08-31T17:28:25.544Z,3.23
2022-08-31T17:30:01.009Z,3.47
2022-08-31T17:31:38.372Z,3.67
2022-08-31T17:33:12.676Z,3.33
2022-08-31T17:34:49.748Z,3.00
2022-08-31T17:36:23.411Z,3.10
2022-08-31T17:37:57.179Z,3.43
2022-08-31T17:39:30.437Z,3.03
2022-08-31T17:41:08.271Z,3.27
2022-08-31T17:42:42.577Z,3.37
2022-08-31T17:44:16.510Z,3.27
2022-08-31T17:45:49.758Z,3.40
2022-08-31T17:47:23.553Z,3.50
2022-08-31T17:48:56.137Z,3.30
2022-08-31T17:50:29.004Z,3.67
2022-08-31T17:52:06.584Z,3.73
2022-08-31T17:53:39.899Z,3.40
2022-08-31T17:55:13.025Z,3.53
2022-08-31T17:56:48.186Z,3.70
2022-08-31T17:58:22.414Z,4.10
2022-08-31T17:59:55.957Z,3.83
2022-08-31T18:01:31.227Z,4.20
2022-08-31T18:03:06.529Z,4.57
2022-08-31T18:04:40.477Z,4.30
2022-08-31T18:06:13.395Z,4.30
2022-08-31T18:07:49.943Z,4.37
2022-08-31T18:09:25.075Z,4.30
2022-08-31T18:10:57.957Z,4.40
2022-08-31T18:12:30.853Z,4.63
2022-08-31T18:14:05.044Z,4.73
2022-08-31T18:15:40.167Z,4.17
2022-08-31T18:17:16.215Z,4.53
2022-08-31T18:18:51.001Z,4.77
2022-08-31T18:20:23.945Z,4.93
2022-08-31T18:21:57.328Z,4.80
2022-08-31T18:23:30.195Z,5.07
2022-08-31T18:25:03.178Z,4.73
2022-08-31T18:26:37.937Z,4.50
2022-08-31T18:28:12.461Z,4.80
2022-08-31T18:29:46.812Z,4.87
2022-08-31T18:31:27.102Z,4.73
2022-08-31T18:33:03.589Z,5.30
2022-08-31T18:34:40.117Z,4.83
2022-08-31T18:36:13.089Z,4.43
2022-08-31T18:37:46.026Z,4.97
2022-08-31T18:39:47.677Z,5.10
2022-08-31T18:41:33.188Z,4.73
2022-08-31T18:43:20.185Z,4.90
2022-08-31T18:45:14.492Z,5.33
2022-08-31T18:46:47.792Z,5.50
2022-08-31T18:48:25.232Z,5.10
2022-08-31T18:49:59.217Z,5.40
2022-08-31T18:51:33.212Z,5.20
2022-08-31T18:53:08.187Z,5.27
2022-08-31T18:54:44.325Z,5.40
2022-08-31T18:56:18.025Z,5.47
2022-08-31T18:57:51.172Z,5.00
2022-08-31T18:59:24.388Z,5.47
2022-08-31T19:00:59.656Z,5.57
2022-08-31T19:02:33.557Z,5.63
2022-08-31T19:04:07.772Z,5.77
2022-08-31T19:05:42.036Z,5.50
2022-08-31T19:07:15.898Z,5.60
2022-08-31T19:08:50.121Z,6.10
2022-08-31T19:10:25.640Z,6.13
2022-08-31T19:12:02.398Z,6.10
2022-08-31T19:13:35.609Z,6.30
2022-08-31T19:15:11.035Z,6.13
2022-08-31T19:16:45.641Z,6.00
2022-08-31T19:18:24.651Z,6.03
2022-08-31T19:19:57.619Z,5.90
2022-08-31T19:21:33.298Z,6.23
2022-08-31T19:23:06.364Z,6.53
2022-08-31T19:24:40.910Z,6.10
2022-08-31T19:26:20.511Z,5.80
2022-08-31T19:27:55.119Z,6.40
2022-08-31T19:29:30.928Z,6.23
2022-08-31T19:31:03.805Z,6.67
2022-08-31T19:32:38.303Z,6.90
2022-08-31T19:34:12.213Z,6.93
2022-08-31T19:35:45.611Z,6.80
2022-08-31T19:37:19.281Z,7.20
2022-08-31T19:38:54.102Z,6.90
2022-08-31T19:40:43.504Z,7.33
2022-08-31T19:42:17.310Z,7.07
2022-08-31T19:43:56.032Z,7.23
2022-08-31T19:45:44.906Z,7.30
2022-08-31T19:47:25.727Z,7.20
2022-08-31T19:49:00.763Z,7.23
2022-08-31T19:50:41.525Z,7.30
2022-08-31T19:52:14.719Z,7.10
2022-08-31T19:53:49.704Z,7.00
2022-08-31T19:55:22.797Z,6.90
2022-08-31T19:56:55.156Z,6.87
2022-08-31T19:58:28.102Z,6.90
2022-08-31T20:00:01.043Z,6.87
2022-08-31T20:01:34.479Z,6.67
2022-08-31T20:03:07.473Z,6.60
2022-08-31T20:04:42.360Z,6.60
2022-08-31T20:06:19.273Z,6.90
2022-08-31T20:07:52.141Z,7.03
2022-08-31T20:09:30.175Z,6.70
2022-08-31T20:11:03.685Z,7.00
2022-08-31T20:12:36.556Z,6.63
2022-08-31T20:14:09.419Z,6.30
2022-08-31T20:15:44.989Z,7.23
2022-08-31T20:17:20.425Z,6.47
2022-08-31T20:18:57.725Z,7.10
2022-08-31T20:20:36.164Z,6.63
2022-08-31T20:22:09.063Z,7.20
2022-08-31T20:23:42.306Z,6.27
2022-08-31T20:25:18.814Z,6.60
2022-08-31T20:26:53.464Z,6.23
2022-08-31T20:28:27.075Z,6.60
2022-08-31T20:30:00.137Z,6.30
2022-08-31T20:31:33.346Z,6.57
2022-08-31T20:33:08.310Z,6.33
2022-08-31T20:34:42.829Z,6.50
2022-08-31T20:36:19.739Z,6.33
2022-08-31T20:37:52.584Z,6.70
2022-08-31T20:39:27.100Z,6.60
2022-08-31T20:41:03.913Z,6.90
2022-08-31T20:42:36.785Z,6.90
2022-08-31T20:44:11.527Z,6.50
2022-08-31T20:45:44.316Z,6.50
2022-08-31T20:47:34.771Z,6.13
2022-08-31T20:49:26.633Z,6.10
2022-08-31T20:50:59.729Z,5.90
2022-08-31T20:52:35.867Z,5.73
2022-08-31T20:54:07.993Z,6.03
2022-08-31T20:55:40.761Z,5.53
2022-08-31T20:57:14.844Z,5.40
2022-08-31T20:58:48.287Z,5.37
2022-08-31T21:00:21.240Z,5.40
2022-08-31T21:01:59.383Z,5.97
2022-08-31T21:03:32.154Z,6.00
2022-08-31T21:05:36.395Z,5.50
2022-08-31T21:06:59.128Z,5.70
2022-08-31T21:08:34.140Z,5.43
2022-08-31T21:10:09.434Z,5.70
2022-08-31T21:11:43.613Z,5.33
2022-08-31T21:13:16.700Z,5.57
2022-08-31T21:14:49.427Z,5.10
2022-08-31T21:16:23.490Z,5.40
2022-08-31T21:17:57.584Z,5.13
2022-08-31T21:19:30.359Z,5.20